createdAt,value
2019-01-22T00:01:56.603Z,40.86
2019-01-22T00:04:22.929Z,40.79
2019-01-22T00:06:49.267Z,40.83
2019-01-22T00:09:15.597Z,40.87
2019-01-22T00:11:41.926Z,41.04
2019-01-22T00:14:08.311Z,40.96
2019-01-22T00:16:34.667Z,40.90
2019-01-22T00:19:01.042Z,40.96
2019-01-22T00:21:27.382Z,40.86
2019-01-22T00:23:53.760Z,40.95
2019-01-22T00:26:20.091Z,40.99
2019-01-22T00:28:46.468Z,40.96
2019-01-22T00:31:12.829Z,41.04
2019-01-22T00:33:39.190Z,41.02
2019-01-22T00:36:05.519Z,40.95
2019-01-22T00:38:31.902Z,41.06
2019-01-22T00:40:58.276Z,40.95
2019-01-22T00:43:24.609Z,40.99
2019-01-22T00:45:50.983Z,41.02
2019-01-22T00:48:17.325Z,41.09
2019-01-22T00:50:43.649Z,41.05
2019-01-22T00:53:10.349Z,41.14
2019-01-22T00:55:36.373Z,41.06
2019-01-22T00:58:02.744Z,41.14
2019-01-22T01:00:29.070Z,41.04
2019-01-22T01:02:55.482Z,41.08
2019-01-22T01:05:21.819Z,40.63
2019-01-22T01:07:48.164Z,40.79
2019-01-22T01:10:14.547Z,40.86
2019-01-22T01:12:41.011Z,40.92
2019-01-22T01:15:07.373Z,40.84
2019-01-22T01:17:33.700Z,40.74
2019-01-22T01:20:00.142Z,40.65
2019-01-22T01:22:26.424Z,40.60
2019-01-22T01:24:52.764Z,40.57
2019-01-22T01:27:19.155Z,40.48
2019-01-22T01:29:45.512Z,40.48
2019-01-22T01:32:11.841Z,40.44
2019-01-22T01:34:38.187Z,40.40
2019-01-22T01:37:04.517Z,40.29
2019-01-22T01:39:30.851Z,40.31
2019-01-22T01:41:57.174Z,40.22
2019-01-22T01:44:23.535Z,40.28
2019-01-22T01:46:49.876Z,40.08
2019-01-22T01:49:16.268Z,40.02
2019-01-22T01:51:42.596Z,39.86
2019-01-22T01:54:08.930Z,39.77
2019-01-22T01:56:35.290Z,39.65
2019-01-22T01:59:01.660Z,39.57
2019-01-22T02:01:27.991Z,39.45
2019-01-22T02:03:54.437Z,39.35
2019-01-22T02:06:20.773Z,39.24
2019-01-22T02:08:47.123Z,39.15
2019-01-22T02:11:13.637Z,39.09
2019-01-22T02:13:39.965Z,38.99
2019-01-22T02:16:06.291Z,38.93
2019-01-22T02:18:32.626Z,38.87
2019-01-22T02:20:59.011Z,38.85
2019-01-22T02:23:30.643Z,38.80
2019-01-22T02:25:51.684Z,38.74
2019-01-22T02:28:18.014Z,38.64
2019-01-22T02:30:44.398Z,38.54
2019-01-22T02:33:10.729Z,38.46
2019-01-22T02:35:37.015Z,38.48
2019-01-22T02:38:03.496Z,38.38
2019-01-22T02:40:29.868Z,38.40
2019-01-22T02:42:56.155Z,38.31
2019-01-22T02:45:22.478Z,38.28
2019-01-22T02:47:48.878Z,38.27
2019-01-22T02:50:15.232Z,38.23
2019-01-22T02:52:41.559Z,38.24
2019-01-22T02:55:07.938Z,38.22
2019-01-22T02:57:34.236Z,38.19
2019-01-22T03:00:00.575Z,38.19
2019-01-22T03:02:26.913Z,38.07
2019-01-22T03:04:53.254Z,38.11
2019-01-22T03:07:20.816Z,38.05
2019-01-22T03:09:45.984Z,38.08
2019-01-22T03:12:12.305Z,37.97
2019-01-22T03:14:38.646Z,37.91
2019-01-22T03:17:05.019Z,37.87
2019-01-22T03:19:31.351Z,37.80
2019-01-22T03:21:57.705Z,37.72
2019-01-22T03:24:24.055Z,37.76
2019-01-22T03:26:50.409Z,37.84
2019-01-22T03:29:16.746Z,37.78
2019-01-22T03:31:43.117Z,37.85
2019-01-22T03:34:09.463Z,37.80
2019-01-22T03:36:38.312Z,37.88
2019-01-22T03:39:04.695Z,37.87
2019-01-22T03:41:31.013Z,37.93
2019-01-22T03:43:57.400Z,37.96
2019-01-22T03:46:23.731Z,37.99
2019-01-22T03:48:50.144Z,37.96
2019-01-22T03:51:16.470Z,37.96
2019-01-22T03:53:42.827Z,38.02
2019-01-22T03:56:09.165Z,37.95
2019-01-22T03:58:35.570Z,37.91
2019-01-22T04:01:01.895Z,37.92
2019-01-22T04:03:28.248Z,37.90
2019-01-22T04:05:54.581Z,37.79
2019-01-22T04:08:20.912Z,37.73
2019-01-22T04:10:47.247Z,37.62
2019-01-22T04:13:13.637Z,37.61
2019-01-22T04:15:39.992Z,37.54
2019-01-22T04:18:06.334Z,37.54
2019-01-22T04:20:32.689Z,39.41
2019-01-22T04:22:59.024Z,37.96
2019-01-22T04:25:25.392Z,37.70
2019-01-22T04:27:51.738Z,37.70
2019-01-22T04:30:18.064Z,37.76
2019-01-22T04:32:44.411Z,37.69
2019-01-22T04:35:10.783Z,37.75
2019-01-22T04:37:37.114Z,37.74
2019-01-22T04:40:03.458Z,37.79
2019-01-22T04:42:29.780Z,37.67
2019-01-22T04:44:56.162Z,37.66
2019-01-22T04:47:22.489Z,37.54
2019-01-22T04:49:48.844Z,37.48
2019-01-22T04:52:15.178Z,37.35
2019-01-22T04:54:41.511Z,37.42
2019-01-22T04:57:07.856Z,37.32
2019-01-22T04:59:35.821Z,37.30
2019-01-22T05:02:02.151Z,37.21
2019-01-22T05:04:28.484Z,37.13
2019-01-22T05:06:54.823Z,37.13
2019-01-22T05:09:21.199Z,37.19
2019-01-22T05:11:47.533Z,37.08
2019-01-22T05:14:13.875Z,37.02
2019-01-22T05:16:40.220Z,36.99
2019-01-22T05:19:06.567Z,36.94
2019-01-22T05:21:32.902Z,36.93
2019-01-22T05:23:59.278Z,36.83
2019-01-22T05:26:25.604Z,36.76
2019-01-22T05:28:51.939Z,36.74
2019-01-22T05:31:18.282Z,36.87
2019-01-22T05:33:44.622Z,36.73
2019-01-22T05:36:10.962Z,37.09
2019-01-22T05:38:37.326Z,36.78
2019-01-22T05:41:03.785Z,37.03
2019-01-22T05:43:30.127Z,37.09
2019-01-22T05:45:56.495Z,36.77
2019-01-22T05:48:22.825Z,36.86
2019-01-22T05:50:49.207Z,36.91
2019-01-22T05:53:15.548Z,36.58
2019-01-22T05:55:41.922Z,36.65
2019-01-22T05:58:08.418Z,36.69
2019-01-22T06:00:34.763Z,36.75
2019-01-22T06:03:01.111Z,36.71
2019-01-22T06:05:27.479Z,36.40
2019-01-22T06:07:53.838Z,36.25
2019-01-22T06:10:20.240Z,36.22
2019-01-22T06:12:46.692Z,36.68
2019-01-22T06:15:13.139Z,36.49
2019-01-22T06:17:39.487Z,36.39
2019-01-22T06:20:05.839Z,36.03
2019-01-22T06:22:32.223Z,36.17
2019-01-22T06:24:58.567Z,35.87
2019-01-22T06:27:24.897Z,35.99
2019-01-22T06:29:51.233Z,35.67
2019-01-22T06:32:17.562Z,35.83
2019-01-22T06:34:43.909Z,36.19
2019-01-22T06:37:10.306Z,35.77
2019-01-22T06:39:36.664Z,35.92
2019-01-22T06:42:03.079Z,36.13
2019-01-22T06:44:29.418Z,36.20
2019-01-22T06:46:55.787Z,35.71
2019-01-22T06:49:22.080Z,35.54
2019-01-22T06:51:48.508Z,35.62
2019-01-22T06:54:14.847Z,35.57
2019-01-22T06:56:41.347Z,35.61
2019-01-22T06:59:07.672Z,35.18
2019-01-22T07:01:34.085Z,35.44
2019-01-22T07:04:00.451Z,35.90
2019-01-22T07:06:26.964Z,35.02
2019-01-22T07:08:53.296Z,35.62
2019-01-22T07:11:19.710Z,35.38
2019-01-22T07:13:46.081Z,35.10
2019-01-22T07:16:12.479Z,35.26
2019-01-22T07:18:38.828Z,35.38
2019-01-22T07:21:05.172Z,35.40
2019-01-22T07:23:31.510Z,34.94
2019-01-22T07:25:57.834Z,34.67
2019-01-22T07:28:24.389Z,35.39
2019-01-22T07:30:50.738Z,34.47
2019-01-22T07:33:17.069Z,34.64
2019-01-22T07:35:43.434Z,34.46
2019-01-22T07:38:09.785Z,35.10
2019-01-22T07:40:36.148Z,35.06
2019-01-22T07:43:02.483Z,35.00
2019-01-22T07:45:28.895Z,34.74
2019-01-22T07:47:55.238Z,34.18
2019-01-22T07:50:22.164Z,34.63
2019-01-22T07:52:48.503Z,34.63
2019-01-22T07:55:14.857Z,34.04
2019-01-22T07:57:42.269Z,34.13
2019-01-22T08:00:08.636Z,34.67
2019-01-22T08:02:35.012Z,34.45
2019-01-22T08:05:01.434Z,34.20
2019-01-22T08:07:27.804Z,33.59
2019-01-22T08:09:54.162Z,33.43
2019-01-22T08:12:20.501Z,33.96
2019-01-22T08:14:47.001Z,33.75
2019-01-22T08:17:13.353Z,33.81
2019-01-22T08:19:39.693Z,33.91
2019-01-22T08:22:06.026Z,33.75
2019-01-22T08:24:32.434Z,33.50
2019-01-22T08:26:58.886Z,33.27
2019-01-22T08:29:25.219Z,33.24
2019-01-22T08:31:51.608Z,33.09
2019-01-22T08:34:17.985Z,33.68
2019-01-22T08:36:44.331Z,32.72
2019-01-22T08:39:10.686Z,32.74
2019-01-22T08:41:37.548Z,33.00
2019-01-22T08:44:03.878Z,32.63
2019-01-22T08:46:30.227Z,33.49
2019-01-22T08:48:58.760Z,32.62
2019-01-22T08:51:25.155Z,32.35
2019-01-22T08:56:35.646Z,32.18
2019-01-22T08:59:02.024Z,33.16
2019-01-22T09:01:28.463Z,32.97
2019-01-22T09:03:54.925Z,33.52
2019-01-22T09:06:21.323Z,33.49
2019-01-22T09:08:47.688Z,33.26
2019-01-22T09:11:14.150Z,33.57
2019-01-22T09:13:40.557Z,33.19
2019-01-22T09:16:06.902Z,32.80
2019-01-22T09:18:33.255Z,32.98
2019-01-22T09:20:59.599Z,33.06
2019-01-22T09:23:26.013Z,32.11
2019-01-22T09:25:55.625Z,32.64
2019-01-22T09:28:21.958Z,32.72
2019-01-22T09:30:48.314Z,32.61
2019-01-22T09:33:15.613Z,32.52
2019-01-22T09:35:42.001Z,32.65
2019-01-22T09:38:08.453Z,32.97
2019-01-22T09:40:34.804Z,32.57
2019-01-22T09:43:01.155Z,32.67
2019-01-22T09:45:27.545Z,32.47
2019-01-22T09:47:54.001Z,32.54
2019-01-22T09:50:20.352Z,32.78
2019-01-22T09:52:46.737Z,32.45
2019-01-22T09:55:13.144Z,33.05
2019-01-22T09:57:39.520Z,32.64
2019-01-22T10:00:05.859Z,32.91
2019-01-22T10:02:33.206Z,33.21
2019-01-22T10:04:59.558Z,32.72
2019-01-22T10:07:25.931Z,33.26
2019-01-22T10:09:52.264Z,33.26
2019-01-22T10:12:18.649Z,33.54
2019-01-22T10:14:44.978Z,32.65
2019-01-22T10:17:12.592Z,33.12
2019-01-22T10:19:37.840Z,32.57
2019-01-22T10:22:04.221Z,32.79
2019-01-22T10:24:30.587Z,32.78
2019-01-22T10:26:56.932Z,33.19
2019-01-22T10:29:23.287Z,32.98
2019-01-22T10:31:50.521Z,32.98
2019-01-22T10:34:16.162Z,33.76
2019-01-22T10:36:42.487Z,32.97
2019-01-22T10:39:08.822Z,33.12
2019-01-22T10:41:35.189Z,33.34
2019-01-22T10:44:01.623Z,32.86
2019-01-22T10:46:27.937Z,33.04
2019-01-22T10:48:54.264Z,33.37
2019-01-22T10:51:20.642Z,33.29
2019-01-22T10:53:47.082Z,33.11
2019-01-22T10:56:13.471Z,33.02
2019-01-22T10:58:39.844Z,32.67
2019-01-22T11:01:06.379Z,32.75
2019-01-22T11:03:32.771Z,32.85
2019-01-22T11:05:59.239Z,32.81
2019-01-22T11:08:25.605Z,32.73
2019-01-22T11:10:52.112Z,32.74
2019-01-22T11:13:18.326Z,32.54
2019-01-22T11:15:44.755Z,32.62
2019-01-22T11:18:11.282Z,32.58
2019-01-22T11:20:37.624Z,32.58
2019-01-22T11:23:04.030Z,32.49
2019-01-22T11:25:30.366Z,32.90
2019-01-22T11:27:56.728Z,32.98
2019-01-22T11:30:23.074Z,33.34
2019-01-22T11:32:49.488Z,32.81
2019-01-22T11:35:15.825Z,33.00
2019-01-22T11:37:42.218Z,32.56
2019-01-22T11:40:08.738Z,32.90
2019-01-22T11:42:35.104Z,33.26
2019-01-22T11:45:01.442Z,33.26
2019-01-22T11:47:27.796Z,32.95
2019-01-22T11:49:54.199Z,33.05
2019-01-22T11:52:20.549Z,33.73
2019-01-22T11:54:46.922Z,33.92
2019-01-22T11:57:13.272Z,32.94
2019-01-22T11:59:39.637Z,33.50
2019-01-22T12:02:05.964Z,32.64
2019-01-22T12:04:32.361Z,32.74
2019-01-22T12:06:58.715Z,33.42
2019-01-22T12:09:25.124Z,33.20
2019-01-22T12:11:51.479Z,33.23
2019-01-22T12:14:17.880Z,33.23
2019-01-22T12:16:44.241Z,33.01
2019-01-22T12:19:10.600Z,32.92
2019-01-22T12:21:37.010Z,32.80
2019-01-22T12:24:03.363Z,33.04
2019-01-22T12:26:29.724Z,33.01
2019-01-22T12:28:56.080Z,32.80
2019-01-22T12:31:22.505Z,33.01
2019-01-22T12:33:48.872Z,32.94
2019-01-22T12:36:15.313Z,33.10
2019-01-22T12:38:41.733Z,33.12
2019-01-22T12:41:08.151Z,32.88
2019-01-22T12:43:34.462Z,33.16
2019-01-22T12:46:00.832Z,33.19
2019-01-22T12:48:27.346Z,33.44
2019-01-22T12:50:53.669Z,33.40
2019-01-22T12:53:20.007Z,33.34
2019-01-22T12:55:46.397Z,33.20
2019-01-22T12:58:12.897Z,33.27
2019-01-22T13:00:39.325Z,33.27
2019-01-22T13:03:05.695Z,33.26
2019-01-22T13:05:32.030Z,33.25
2019-01-22T13:07:58.384Z,33.79
2019-01-22T13:10:24.772Z,33.16
2019-01-22T13:12:51.194Z,33.18
2019-01-22T13:15:17.521Z,33.09
2019-01-22T13:17:43.899Z,33.19
2019-01-22T13:20:10.370Z,33.16
2019-01-22T13:22:36.711Z,33.24
2019-01-22T13:25:03.060Z,32.80
2019-01-22T13:27:29.469Z,32.94
2019-01-22T13:30:01.299Z,32.84
2019-01-22T13:32:22.187Z,32.84
2019-01-22T13:34:48.787Z,32.90
2019-01-22T13:37:15.231Z,33.53
2019-01-22T13:39:41.613Z,33.83
2019-01-22T13:42:10.340Z,33.30
2019-01-22T13:44:36.774Z,33.34
2019-01-22T13:47:03.604Z,32.95
2019-01-22T13:49:32.499Z,32.77
2019-01-22T13:52:13.013Z,33.39
2019-01-22T13:54:41.648Z,32.78
2019-01-22T13:57:10.126Z,32.92
2019-01-22T13:59:37.580Z,33.10
2019-01-22T14:02:06.375Z,32.96
2019-01-22T14:04:32.754Z,33.10
2019-01-22T14:06:59.134Z,33.68
2019-01-22T14:09:25.962Z,33.94
2019-01-22T14:11:52.388Z,33.60
2019-01-22T14:14:19.338Z,35.12
2019-01-22T14:16:45.963Z,33.51
2019-01-22T14:19:13.096Z,34.08
2019-01-22T14:21:39.512Z,33.30
2019-01-22T14:24:05.884Z,33.76
2019-01-22T14:26:32.340Z,34.49
2019-01-22T14:28:58.870Z,33.88
2019-01-22T14:31:25.361Z,33.10
2019-01-22T14:33:51.759Z,33.62
2019-01-22T14:36:18.162Z,33.55
2019-01-22T14:38:44.468Z,33.49
2019-01-22T14:41:10.843Z,33.45
2019-01-22T14:43:37.292Z,33.43
2019-01-22T14:46:03.614Z,33.88
2019-01-22T14:48:29.958Z,33.97
2019-01-22T14:50:56.315Z,33.18
2019-01-22T14:53:22.649Z,33.01
2019-01-22T14:55:49.040Z,33.37
2019-01-22T14:58:15.429Z,33.52
2019-01-22T15:00:41.779Z,33.25
2019-01-22T15:03:08.191Z,33.31
2019-01-22T15:05:34.642Z,33.38
2019-01-22T15:08:01.056Z,33.16
2019-01-22T15:10:27.431Z,33.01
2019-01-22T15:12:53.773Z,33.30
2019-01-22T15:15:20.129Z,32.74
2019-01-22T15:17:46.809Z,32.63
2019-01-22T15:20:13.527Z,33.30
2019-01-22T15:22:40.586Z,33.36
2019-01-22T15:25:06.982Z,33.51
2019-01-22T15:27:33.785Z,33.49
2019-01-22T15:30:00.451Z,33.41
2019-01-22T15:32:27.072Z,33.51
2019-01-22T15:34:53.803Z,33.42
2019-01-22T15:37:20.463Z,33.55
2019-01-22T15:39:47.097Z,33.23
2019-01-22T15:42:13.673Z,33.42
2019-01-22T15:44:40.278Z,33.56
2019-01-22T15:47:07.076Z,33.26
2019-01-22T15:49:33.855Z,33.40
2019-01-22T15:52:00.557Z,33.36
2019-01-22T15:54:27.392Z,33.32
2019-01-22T15:56:54.067Z,33.29
2019-01-22T15:59:20.934Z,33.49
2019-01-22T16:01:47.497Z,33.37
2019-01-22T16:04:13.938Z,33.40
2019-01-22T16:06:40.286Z,33.36
2019-01-22T16:09:06.667Z,33.15
2019-01-22T16:11:33.043Z,33.20
2019-01-22T16:13:59.387Z,33.02
2019-01-22T16:16:25.716Z,33.39
2019-01-22T16:18:53.526Z,33.48
2019-01-22T16:21:18.427Z,33.53
2019-01-22T16:23:44.836Z,33.52
2019-01-22T16:26:11.223Z,33.59
2019-01-22T16:28:37.525Z,33.68
2019-01-22T16:31:03.932Z,33.78
2019-01-22T16:33:30.306Z,33.64
2019-01-22T16:35:56.637Z,33.75
2019-01-22T16:38:23.024Z,33.83
2019-01-22T16:40:49.537Z,33.86
2019-01-22T16:43:15.860Z,33.90
2019-01-22T16:45:42.238Z,33.90
2019-01-22T16:48:08.624Z,34.17
2019-01-22T16:50:35.051Z,34.18
2019-01-22T16:53:01.817Z,34.17
2019-01-22T16:55:27.784Z,34.17
2019-01-22T16:57:54.113Z,34.26
2019-01-22T17:00:20.501Z,34.27
2019-01-22T17:02:47.036Z,34.32
2019-01-22T17:05:13.320Z,34.04
2019-01-22T17:07:39.687Z,34.10
2019-01-22T17:10:06.013Z,34.04
2019-01-22T17:12:32.373Z,34.20
2019-01-22T17:14:58.704Z,34.21
2019-01-22T17:17:25.149Z,34.22
2019-01-22T17:19:51.534Z,34.10
2019-01-22T17:22:17.869Z,34.08
2019-01-22T17:24:44.219Z,34.16
2019-01-22T17:27:10.550Z,34.18
2019-01-22T17:29:36.901Z,34.04
2019-01-22T17:32:04.601Z,34.06
2019-01-22T17:34:29.805Z,34.00
2019-01-22T17:36:56.133Z,33.91
2019-01-22T17:39:22.589Z,34.16
2019-01-22T17:41:48.884Z,34.15
2019-01-22T17:44:15.213Z,34.13
2019-01-22T17:46:41.577Z,34.20
2019-01-22T17:49:07.942Z,34.04
2019-01-22T17:51:34.289Z,34.19
2019-01-22T17:54:00.673Z,34.18
2019-01-22T17:56:30.866Z,34.19
2019-01-22T17:58:53.333Z,34.36
2019-01-22T18:01:19.675Z,34.52
2019-01-22T18:03:46.019Z,34.32
2019-01-22T18:06:12.427Z,34.33
2019-01-22T18:08:38.791Z,34.23
2019-01-22T18:11:05.152Z,34.31
2019-01-22T18:13:31.533Z,34.62
2019-01-22T18:15:57.834Z,34.42
2019-01-22T18:18:24.221Z,34.38
2019-01-22T18:20:50.576Z,34.53
2019-01-22T18:23:16.928Z,34.45
2019-01-22T18:25:43.250Z,34.69
2019-01-22T18:28:09.585Z,34.52
2019-01-22T18:30:35.991Z,34.65
2019-01-22T18:33:02.374Z,34.50
2019-01-22T18:35:28.674Z,34.67
2019-01-22T18:37:55.065Z,34.79
2019-01-22T18:40:21.416Z,34.92
2019-01-22T18:42:47.872Z,34.95
2019-01-22T18:45:14.304Z,35.03
2019-01-22T18:47:40.668Z,35.03
2019-01-22T18:50:07.007Z,35.18
2019-01-22T18:52:33.336Z,35.28
2019-01-22T18:54:59.668Z,34.97
2019-01-22T18:57:27.627Z,35.11
2019-01-22T18:59:52.343Z,35.17
2019-01-22T19:02:18.682Z,35.45
2019-01-22T19:04:45.006Z,35.32
2019-01-22T19:07:11.346Z,35.32
2019-01-22T19:09:37.667Z,35.54
2019-01-22T19:12:04.005Z,35.42
2019-01-22T19:14:30.374Z,35.44
2019-01-22T19:16:56.746Z,35.46
2019-01-22T19:19:23.099Z,35.63
2019-01-22T19:21:49.430Z,35.55
2019-01-22T19:24:15.761Z,35.67
2019-01-22T19:26:42.091Z,35.74
2019-01-22T19:29:08.413Z,35.79
2019-01-22T19:31:34.746Z,35.76
2019-01-22T19:34:01.155Z,35.77
2019-01-22T19:36:27.488Z,35.65
2019-01-22T19:38:53.851Z,35.81
2019-01-22T19:41:20.189Z,35.76
2019-01-22T19:43:46.688Z,35.79
2019-01-22T19:46:12.940Z,35.89
2019-01-22T19:48:39.310Z,35.82
2019-01-22T19:51:05.649Z,35.82
2019-01-22T19:53:31.971Z,36.10
2019-01-22T19:55:58.404Z,36.07
2019-01-22T19:58:24.743Z,36.07
2019-01-22T20:00:51.078Z,36.17
2019-01-22T20:03:17.406Z,36.22
2019-01-22T20:05:43.762Z,36.23
2019-01-22T20:08:10.112Z,36.32
2019-01-22T20:10:36.485Z,36.33
2019-01-22T20:13:02.894Z,36.32
2019-01-22T20:15:29.190Z,36.27
2019-01-22T20:17:55.514Z,36.37
2019-01-22T20:20:21.876Z,36.45
2019-01-22T20:22:48.186Z,36.50
2019-01-22T20:25:14.572Z,36.50
2019-01-22T20:27:40.897Z,36.53
2019-01-22T20:30:07.225Z,36.57
2019-01-22T20:32:33.556Z,36.58
2019-01-22T20:34:59.918Z,36.63
2019-01-22T20:37:26.249Z,36.61
2019-01-22T20:39:52.581Z,36.64
2019-01-22T20:42:18.930Z,36.69
2019-01-22T20:44:45.258Z,36.56
2019-01-22T20:47:11.586Z,36.63
2019-01-22T20:49:37.925Z,36.77
2019-01-22T20:52:04.307Z,36.77
2019-01-22T20:54:30.636Z,36.80
2019-01-22T20:56:57.003Z,36.90
2019-01-22T20:59:23.341Z,36.84
2019-01-22T21:01:49.731Z,36.93
2019-01-22T21:04:16.052Z,36.90
2019-01-22T21:06:42.408Z,36.87
2019-01-22T21:09:08.741Z,36.93
2019-01-22T21:11:35.071Z,36.95
2019-01-22T21:14:01.403Z,36.96
2019-01-22T21:16:27.740Z,36.87
2019-01-22T21:18:54.080Z,37.11
2019-01-22T21:21:20.410Z,37.01
2019-01-22T21:23:46.929Z,37.03
2019-01-22T21:26:13.257Z,37.10
2019-01-22T21:28:39.589Z,37.15
2019-01-22T21:31:05.981Z,37.16
2019-01-22T21:33:32.317Z,37.21
2019-01-22T21:35:58.698Z,37.22
2019-01-22T21:38:25.061Z,37.25
2019-01-22T21:40:51.454Z,37.20
2019-01-22T21:43:17.864Z,37.17
2019-01-22T21:45:44.186Z,37.31
2019-01-22T21:48:10.513Z,37.28
2019-01-22T21:50:36.911Z,37.35
2019-01-22T21:53:03.217Z,37.40
2019-01-22T21:55:29.541Z,37.48
2019-01-22T21:57:55.881Z,37.51
2019-01-22T22:00:22.236Z,37.41
2019-01-22T22:02:48.583Z,37.42
2019-01-22T22:05:14.911Z,37.43
2019-01-22T22:07:41.291Z,37.61
2019-01-22T22:10:07.653Z,37.65
2019-01-22T22:12:33.990Z,37.53
2019-01-22T22:15:00.316Z,37.57
2019-01-22T22:17:26.653Z,37.51
2019-01-22T22:19:53.017Z,37.60
2019-01-22T22:22:19.367Z,37.67
2019-01-22T22:24:45.702Z,37.67
2019-01-22T22:27:12.045Z,37.69
2019-01-22T22:29:38.385Z,37.55
2019-01-22T22:32:04.705Z,37.72
2019-01-22T22:34:31.035Z,37.64
2019-01-22T22:36:57.365Z,37.64
2019-01-22T22:39:23.773Z,37.75
2019-01-22T22:41:50.129Z,37.80
2019-01-22T22:44:16.459Z,37.80
2019-01-22T22:46:42.787Z,37.87
2019-01-22T22:49:09.120Z,37.91
2019-01-22T22:51:35.662Z,37.87
2019-01-22T22:54:01.953Z,37.92
2019-01-22T22:56:28.320Z,37.86
2019-01-22T22:58:54.663Z,37.92
2019-01-22T23:01:21.006Z,38.04
2019-01-22T23:03:47.326Z,37.99
2019-01-22T23:06:13.665Z,38.09
2019-01-22T23:08:39.994Z,38.06
2019-01-22T23:11:06.344Z,38.06
2019-01-22T23:13:32.716Z,38.14
2019-01-22T23:15:59.152Z,37.96
2019-01-22T23:18:25.548Z,38.17
2019-01-22T23:20:51.868Z,38.21
2019-01-22T23:23:18.201Z,38.19
2019-01-22T23:25:44.570Z,38.19
2019-01-22T23:28:10.919Z,38.23
2019-01-22T23:30:37.283Z,38.32
2019-01-22T23:33:03.632Z,38.27
2019-01-22T23:35:29.986Z,38.16
2019-01-22T23:37:56.306Z,38.28
2019-01-22T23:40:22.641Z,38.35
2019-01-22T23:42:48.960Z,38.34
2019-01-22T23:45:15.306Z,38.25
2019-01-22T23:47:41.631Z,38.38
2019-01-22T23:50:07.961Z,38.48
2019-01-22T23:52:34.318Z,38.55
2019-01-22T23:55:00.647Z,38.46
2019-01-22T23:57:26.980Z,38.45
2019-01-22T23:59:53.316Z,38.63
